Time;durP1;ratioP1;P1;durP2;ratioP2;P2;SDS_P1;SDS_P2;PMS_P1;PMS_P2;Temp;Humidity;BMP_temperature;BMP_pressure;BME280_temperature;BME280_humidity;BME280_pressure;Samples;Min_cycle;Max_cycle;Signal;HPM_P1;HPM_P2
2022/01/28 00:02:30;;;;;;;1.03;1.03;;;;;;;;;;4990466;28;20223;-63
2022/01/28 00:04:57;;;;;;;2.43;1.10;;;;;;;;;;4985023;28;20829;-62
2022/01/28 00:07:24;;;;;;;1.53;1.43;;;;;;;;;;4989642;28;20221;-62
2022/01/28 00:09:53;;;;;;;1.40;1.30;;;;;;;;;;4990180;28;20553;-62
2022/01/28 00:12:20;;;;;;;1.37;0.90;;;;;;;;;;4990370;28;20736;-64
2022/01/28 00:14:53;;;;;;;1.10;1.10;;;;;;;;;;4989596;28;20217;-61
2022/01/28 00:18:00;;;;;;;0.80;0.80;;;;;;;;;;4989946;28;20210;-61
2022/01/28 00:20:58;;;;;;;1.40;1.33;;;;;;;;;;4990185;28;20228;-62
2022/01/28 00:37:26;;;;;;;1.80;0.80;;;;;;;;;;4989821;28;20220;-62
2022/01/28 00:39:53;;;;;;;1.53;1.10;;;;;;;;;;4989694;28;20321;-62
2022/01/28 00:42:21;;;;;;;2.30;1.13;;;;;;;;;;4990039;28;20217;-62
2022/01/28 00:44:48;;;;;;;1.40;1.30;;;;;;;;;;4989476;28;20210;-63
2022/01/28 00:47:15;;;;;;;1.37;1.27;;;;;;;;;;4989661;28;20205;-62
2022/01/28 00:49:42;;;;;;;1.60;1.20;;;;;;;;;;4990006;28;20210;-62
2022/01/28 00:52:10;;;;;;;1.60;1.43;;;;;;;;;;4989633;28;20209;-63
2022/01/28 00:54:37;;;;;;;0.80;0.80;;;;;;;;;;4989730;28;20267;-62
2022/01/28 00:57:04;;;;;;;2.10;0.90;;;;;;;;;;4989506;28;20217;-63
2022/01/28 00:59:32;;;;;;;1.23;1.07;;;;;;;;;;4989213;28;20707;-63
2022/01/28 01:01:59;;;;;;;0.90;0.90;;;;;;;;;;4990057;28;20216;-62
2022/01/28 01:04:26;;;;;;;1.17;0.90;;;;;;;;;;4987266;28;20220;-65
2022/01/28 01:06:53;;;;;;;2.20;0.70;;;;;;;;;;4989937;28;20217;-63
2022/01/28 01:09:20;;;;;;;3.00;1.00;;;;;;;;;;4989195;28;20255;-62
2022/01/28 01:11:47;;;;;;;3.97;0.87;;;;;;;;;;4990058;28;20207;-62
2022/01/28 01:14:15;;;;;;;1.50;0.90;;;;;;;;;;4989613;28;20208;-62
2022/01/28 01:16:58;;;;;;;1.70;1.07;;;;;;;;;;4989813;28;20227;-62
2022/01/28 01:19:29;;;;;;;0.83;0.60;;;;;;;;;;4989047;28;20232;-61
2022/01/28 01:21:58;;;;;;;0.50;0.50;;;;;;;;;;4989450;28;20237;-63
2022/01/28 01:24:28;;;;;;;0.40;0.40;;;;;;;;;;4989140;28;20205;-62
2022/01/28 01:26:59;;;;;;;0.93;0.50;;;;;;;;;;4989029;28;20205;-63
2022/01/28 01:29:26;;;;;;;1.00;0.80;;;;;;;;;;4988898;28;20212;-63
2022/01/28 01:32:01;;;;;;;1.07;0.87;;;;;;;;;;4989223;28;20690;-63
2022/01/28 01:34:28;;;;;;;0.53;0.53;;;;;;;;;;4988981;28;20874;-63
2022/01/28 01:36:55;;;;;;;0.87;0.87;;;;;;;;;;4989642;28;20620;-62
2022/01/28 01:39:25;;;;;;;1.40;0.50;;;;;;;;;;4989149;28;20232;-62
2022/01/28 01:41:57;;;;;;;0.87;0.53;;;;;;;;;;4988751;28;20320;-62
2022/01/28 01:44:34;;;;;;;0.73;0.73;;;;;;;;;;4990862;28;20308;-62
2022/01/28 01:52:42;;;;;;;1.70;0.50;;;;;;;;;;4992526;28;20205;-62
2022/01/28 01:55:10;;;;;;;0.57;0.57;;;;;;;;;;4991283;28;20198;-62
2022/01/28 01:57:37;;;;;;;0.50;0.50;;;;;;;;;;4993319;28;20213;-62
2022/01/28 02:00:04;;;;;;;1.57;0.93;;;;;;;;;;4992357;28;20230;-62
2022/01/28 02:02:33;;;;;;;0.50;0.50;;;;;;;;;;4992089;28;20220;-62
2022/01/28 02:05:00;;;;;;;0.30;0.30;;;;;;;;;;4991337;28;20587;-62
2022/01/28 02:07:28;;;;;;;0.60;0.60;;;;;;;;;;4992323;28;20222;-61
2022/01/28 02:09:55;;;;;;;0.50;0.50;;;;;;;;;;4991170;28;20206;-63
2022/01/28 02:12:22;;;;;;;0.57;0.57;;;;;;;;;;4992014;28;20273;-63
2022/01/28 02:14:49;;;;;;;2.17;0.87;;;;;;;;;;4991625;28;20212;-63
2022/01/28 02:17:16;;;;;;;0.53;0.50;;;;;;;;;;4991810;28;20273;-63
2022/01/28 02:19:45;;;;;;;0.73;0.60;;;;;;;;;;4991397;28;22431;-62
2022/01/28 02:22:13;;;;;;;0.83;0.83;;;;;;;;;;4988370;28;20209;-62
2022/01/28 02:24:43;;;;;;;2.00;0.50;;;;;;;;;;4991815;28;20217;-61
2022/01/28 02:27:13;;;;;;;0.67;0.67;;;;;;;;;;4991891;28;20209;-62
2022/01/28 02:29:41;;;;;;;3.77;0.50;;;;;;;;;;4990879;28;20697;-62
2022/01/28 02:32:09;;;;;;;0.60;0.60;;;;;;;;;;4991470;28;20299;-62
2022/01/28 02:34:38;;;;;;;1.30;0.77;;;;;;;;;;4991374;28;20239;-62
2022/01/28 02:37:05;;;;;;;0.70;0.70;;;;;;;;;;4992256;28;20206;-62
2022/01/28 02:39:33;;;;;;;0.50;0.40;;;;;;;;;;4992228;28;20293;-62
2022/01/28 02:42:11;;;;;;;0.30;0.30;;;;;;;;;;4991822;28;20623;-63
2022/01/28 02:44:47;;;;;;;3.20;0.30;;;;;;;;;;4991791;28;20622;-62
2022/01/28 02:47:17;;;;;;;0.37;0.37;;;;;;;;;;4992357;28;20216;-62
2022/01/28 02:49:45;;;;;;;1.03;0.80;;;;;;;;;;4991977;28;20208;-62
2022/01/28 02:52:20;;;;;;;0.37;0.37;;;;;;;;;;4991887;28;20244;-63
2022/01/28 02:54:50;;;;;;;2.00;0.80;;;;;;;;;;4991970;28;20232;-63
2022/01/28 02:57:23;;;;;;;1.90;0.80;;;;;;;;;;4990331;28;20215;-63
2022/01/28 02:59:50;;;;;;;0.93;0.57;;;;;;;;;;4992059;28;20233;-62
2022/01/28 03:02:17;;;;;;;0.30;0.30;;;;;;;;;;4991377;28;20317;-63
2022/01/28 03:05:05;;;;;;;1.43;0.50;;;;;;;;;;4991045;28;20213;-63
2022/01/28 03:07:32;;;;;;;0.77;0.77;;;;;;;;;;4991494;28;20213;-63
2022/01/28 03:10:27;;;;;;;0.50;0.50;;;;;;;;;;4991498;28;20207;-62
2022/01/28 03:15:52;;;;;;;0.47;0.47;;;;;;;;;;4959045;28;20265;-62
2022/01/28 03:18:22;;;;;;;0.43;0.43;;;;;;;;;;4991289;28;20250;-62
2022/01/28 03:21:00;;;;;;;3.70;0.30;;;;;;;;;;4991213;28;20725;-62
2022/01/28 03:23:28;;;;;;;2.33;0.50;;;;;;;;;;4991584;28;20228;-61
2022/01/28 03:25:56;;;;;;;0.60;0.60;;;;;;;;;;4990907;28;20197;-61
2022/01/28 03:28:23;;;;;;;2.90;0.70;;;;;;;;;;4991038;28;20210;-62
2022/01/28 03:30:50;;;;;;;0.30;0.30;;;;;;;;;;4990493;28;20203;-62
2022/01/28 03:33:17;;;;;;;0.23;0.23;;;;;;;;;;4990242;28;20324;-62
2022/01/28 03:35:44;;;;;;;0.93;0.40;;;;;;;;;;4991198;28;20234;-62
2022/01/28 03:38:12;;;;;;;2.87;0.37;;;;;;;;;;4990900;28;20205;-62
2022/01/28 03:40:41;;;;;;;0.30;0.30;;;;;;;;;;4991205;28;20650;-62
2022/01/28 03:43:10;;;;;;;0.30;0.30;;;;;;;;;;4990539;28;20304;-62
2022/01/28 03:45:37;;;;;;;1.17;0.47;;;;;;;;;;4990799;28;20209;-63
2022/01/28 03:48:05;;;;;;;4.70;0.67;;;;;;;;;;4991086;28;20216;-63
2022/01/28 03:50:34;;;;;;;0.47;0.47;;;;;;;;;;4990818;28;20221;-63
2022/01/28 03:53:01;;;;;;;1.23;0.47;;;;;;;;;;4990008;28;20213;-63
2022/01/28 03:55:28;;;;;;;2.80;0.60;;;;;;;;;;4990484;28;20695;-63
2022/01/28 03:57:55;;;;;;;0.63;0.30;;;;;;;;;;4990149;28;20565;-63
2022/01/28 04:00:26;;;;;;;0.20;0.20;;;;;;;;;;4990283;28;20252;-63
2022/01/28 04:03:03;;;;;;;0.17;0.17;;;;;;;;;;4990803;28;20231;-62
2022/01/28 04:11:32;;;;;;;0.30;0.30;;;;;;;;;;5106801;28;20212;-63
2022/01/28 04:14:07;;;;;;;0.30;0.30;;;;;;;;;;5106510;28;20217;-62
2022/01/28 04:17:19;;;;;;;0.87;0.37;;;;;;;;;;5086737;28;20224;-64
2022/01/28 04:19:21;;;;;;;0.40;0.40;;;;;;;;;;5105931;28;20265;-63
2022/01/28 04:21:48;;;;;;;1.37;0.50;;;;;;;;;;5106597;28;20239;-63
2022/01/28 04:24:17;;;;;;;0.40;0.20;;;;;;;;;;5106572;28;20198;-63
2022/01/28 04:26:44;;;;;;;0.70;0.30;;;;;;;;;;5106732;28;20240;-62
2022/01/28 04:29:13;;;;;;;5.03;0.70;;;;;;;;;;5106357;28;20256;-62
2022/01/28 04:31:42;;;;;;;0.20;0.20;;;;;;;;;;5106559;28;20300;-62
2022/01/28 04:34:10;;;;;;;0.23;0.23;;;;;;;;;;5106286;28;20206;-63
2022/01/28 04:36:45;;;;;;;0.30;0.30;;;;;;;;;;5106404;28;20334;-63
2022/01/28 04:39:18;;;;;;;0.10;0.10;;;;;;;;;;5104995;28;20692;-62
2022/01/28 04:41:57;;;;;;;0.50;0.50;;;;;;;;;;5106183;28;20217;-62
2022/01/28 04:44:31;;;;;;;2.43;0.37;;;;;;;;;;5106364;28;20390;-62
2022/01/28 04:47:04;;;;;;;1.60;0.67;;;;;;;;;;5106157;28;20233;-63
2022/01/28 04:49:43;;;;;;;0.10;0.10;;;;;;;;;;5106191;28;20683;-62
2022/01/28 04:52:39;;;;;;;0.23;0.23;;;;;;;;;;5085381;28;20204;-63
2022/01/28 04:55:14;;;;;;;0.50;0.50;;;;;;;;;;5085720;28;20217;-62
2022/01/28 04:57:56;;;;;;;0.40;0.40;;;;;;;;;;5085061;28;20227;-62
2022/01/28 05:00:32;;;;;;;0.40;0.40;;;;;;;;;;5068402;28;20213;-62
2022/01/28 05:09:04;;;;;;;0.70;0.27;;;;;;;;;;5085119;28;20249;-62
2022/01/28 05:25:50;;;;;;;1.23;0.40;;;;;;;;;;5054080;28;20305;-63
2022/01/28 05:28:20;;;;;;;1.07;0.60;;;;;;;;;;5071161;28;20765;-62
2022/01/28 05:30:49;;;;;;;0.57;0.30;;;;;;;;;;5071587;28;20306;-61
2022/01/28 05:33:16;;;;;;;0.47;0.47;;;;;;;;;;5071441;28;20211;-61
2022/01/28 05:35:43;;;;;;;0.83;0.63;;;;;;;;;;5071442;28;20269;-61
2022/01/28 05:38:10;;;;;;;0.33;0.13;;;;;;;;;;5071773;28;20215;-61
2022/01/28 05:40:37;;;;;;;0.40;0.40;;;;;;;;;;5071605;28;20847;-61
2022/01/28 05:43:04;;;;;;;1.27;0.70;;;;;;;;;;5071509;28;20224;-62
2022/01/28 05:45:31;;;;;;;2.30;0.40;;;;;;;;;;5070962;28;20675;-61
2022/01/28 05:48:00;;;;;;;0.93;0.60;;;;;;;;;;5071028;28;20223;-61
2022/01/28 05:50:27;;;;;;;2.20;0.63;;;;;;;;;;5071353;28;20235;-61
2022/01/28 05:52:54;;;;;;;2.47;0.50;;;;;;;;;;5071100;28;20665;-61
2022/01/28 05:55:21;;;;;;;4.80;0.87;;;;;;;;;;5071096;28;20211;-61
2022/01/28 05:57:48;;;;;;;6.70;0.70;;;;;;;;;;5070915;28;20208;-61
2022/01/28 06:00:17;;;;;;;0.70;0.70;;;;;;;;;;5065157;28;20203;-64
2022/01/28 06:02:44;;;;;;;1.27;0.77;;;;;;;;;;5070224;28;20295;-62
2022/01/28 06:05:13;;;;;;;5.60;0.60;;;;;;;;;;5068790;28;20291;-61
2022/01/28 06:07:42;;;;;;;0.60;0.60;;;;;;;;;;5069853;28;20321;-62
2022/01/28 06:10:09;;;;;;;2.40;0.40;;;;;;;;;;5069848;28;20215;-61
2022/01/28 06:12:40;;;;;;;0.80;0.60;;;;;;;;;;5069685;28;20211;-61
2022/01/28 06:15:07;;;;;;;0.70;0.70;;;;;;;;;;5070116;28;20282;-61
2022/01/28 06:17:34;;;;;;;0.40;0.33;;;;;;;;;;5070033;28;20290;-62
2022/01/28 06:20:03;;;;;;;0.40;0.40;;;;;;;;;;5070229;28;20214;-61
2022/01/28 06:22:31;;;;;;;0.57;0.53;;;;;;;;;;5069736;28;20212;-61
2022/01/28 06:24:58;;;;;;;0.30;0.30;;;;;;;;;;5069805;28;20202;-61
2022/01/28 06:27:25;;;;;;;0.40;0.30;;;;;;;;;;5069939;28;20234;-61
2022/01/28 06:29:52;;;;;;;0.27;0.27;;;;;;;;;;5068564;28;20252;-62
2022/01/28 06:32:20;;;;;;;5.27;0.67;;;;;;;;;;5061898;28;20212;-62
2022/01/28 06:34:48;;;;;;;3.70;0.57;;;;;;;;;;5055805;28;20568;-62
2022/01/28 06:37:15;;;;;;;1.13;0.10;;;;;;;;;;5052335;28;20319;-62
2022/01/28 06:39:43;;;;;;;0.40;0.40;;;;;;;;;;5069749;28;20244;-62
2022/01/28 06:42:10;;;;;;;0.23;0.23;;;;;;;;;;5063002;28;20257;-62
2022/01/28 06:44:37;;;;;;;2.23;0.47;;;;;;;;;;5068263;28;20219;-62
2022/01/28 06:47:05;;;;;;;0.60;0.60;;;;;;;;;;5065609;28;20202;-62
2022/01/28 06:49:32;;;;;;;2.63;0.60;;;;;;;;;;5061893;28;20211;-62
2022/01/28 06:51:59;;;;;;;1.90;0.73;;;;;;;;;;5056897;28;20241;-62
2022/01/28 06:54:26;;;;;;;1.43;0.80;;;;;;;;;;5069782;28;20206;-63
2022/01/28 06:56:54;;;;;;;2.30;0.70;;;;;;;;;;5069293;28;20207;-61
2022/01/28 06:59:21;;;;;;;0.97;0.90;;;;;;;;;;5069616;28;20212;-61
2022/01/28 07:01:48;;;;;;;8.33;1.30;;;;;;;;;;5068845;28;20276;-61
2022/01/28 07:04:16;;;;;;;1.57;1.00;;;;;;;;;;5065276;28;20274;-61
2022/01/28 07:06:43;;;;;;;0.83;0.83;;;;;;;;;;5052157;28;20258;-60
2022/01/28 07:09:10;;;;;;;0.60;0.60;;;;;;;;;;5069452;28;20228;-60
2022/01/28 07:11:37;;;;;;;0.93;0.60;;;;;;;;;;5069499;28;20207;-61
2022/01/28 07:14:06;;;;;;;2.17;0.93;;;;;;;;;;5065558;28;20212;-63
2022/01/28 07:16:33;;;;;;;5.20;1.13;;;;;;;;;;5069321;28;20215;-62
2022/01/28 07:19:00;;;;;;;0.93;0.80;;;;;;;;;;5069260;28;20205;-62
2022/01/28 07:21:27;;;;;;;3.40;1.00;;;;;;;;;;5069430;28;20264;-62
2022/01/28 07:23:54;;;;;;;4.17;1.60;;;;;;;;;;5069262;28;20268;-62
2022/01/28 07:26:21;;;;;;;4.90;0.60;;;;;;;;;;5069018;28;20207;-63
2022/01/28 07:28:49;;;;;;;2.20;0.90;;;;;;;;;;5068844;28;20720;-62
2022/01/28 07:31:18;;;;;;;1.20;0.60;;;;;;;;;;5068910;28;20218;-63
2022/01/28 07:33:45;;;;;;;1.50;0.50;;;;;;;;;;5057968;28;20685;-63
2022/01/28 07:36:13;;;;;;;0.40;0.40;;;;;;;;;;5060129;28;20304;-63
2022/01/28 07:38:40;;;;;;;0.53;0.40;;;;;;;;;;5058656;28;20278;-63
2022/01/28 07:41:07;;;;;;;2.17;1.20;;;;;;;;;;5056641;28;20252;-63
2022/01/28 07:43:37;;;;;;;3.07;0.50;;;;;;;;;;5058915;28;20669;-62
2022/01/28 07:46:04;;;;;;;0.60;0.60;;;;;;;;;;5059258;28;20201;-62
2022/01/28 07:48:33;;;;;;;0.83;0.50;;;;;;;;;;5057489;28;20318;-62
2022/01/28 07:51:00;;;;;;;5.10;0.53;;;;;;;;;;5056179;28;20249;-61
2022/01/28 07:53:27;;;;;;;1.33;0.40;;;;;;;;;;5059271;28;20564;-61
2022/01/28 07:55:54;;;;;;;0.30;0.30;;;;;;;;;;5057692;28;20203;-61
2022/01/28 07:58:21;;;;;;;1.73;1.20;;;;;;;;;;5061035;28;20203;-63
2022/01/28 08:00:48;;;;;;;1.43;0.77;;;;;;;;;;5059587;28;21029;-62
2022/01/28 08:03:15;;;;;;;3.13;0.87;;;;;;;;;;5057918;28;20200;-62
2022/01/28 08:05:43;;;;;;;0.30;0.30;;;;;;;;;;5057678;28;20290;-61
2022/01/28 08:08:12;;;;;;;0.87;0.87;;;;;;;;;;5056194;28;20227;-61
2022/01/28 08:10:39;;;;;;;2.03;0.50;;;;;;;;;;5048690;28;20269;-62
2022/01/28 08:13:07;;;;;;;1.10;1.10;;;;;;;;;;5048590;28;20211;-61
2022/01/28 08:15:34;;;;;;;3.60;0.60;;;;;;;;;;5048533;28;20212;-61
2022/01/28 08:18:02;;;;;;;7.03;0.73;;;;;;;;;;5048805;28;20203;-61
2022/01/28 08:20:29;;;;;;;1.13;0.40;;;;;;;;;;5048587;28;20215;-61
2022/01/28 08:22:58;;;;;;;1.73;0.70;;;;;;;;;;5048598;28;20594;-61
2022/01/28 08:25:26;;;;;;;0.67;0.33;;;;;;;;;;5048659;28;20208;-61
2022/01/28 08:27:54;;;;;;;0.57;0.57;;;;;;;;;;5049038;28;20236;-61
2022/01/28 08:30:21;;;;;;;2.27;0.70;;;;;;;;;;5067929;28;20203;-62
2022/01/28 08:32:49;;;;;;;1.50;0.30;;;;;;;;;;5068507;28;20221;-60
2022/01/28 08:35:16;;;;;;;0.50;0.50;;;;;;;;;;5068514;28;20305;-62
2022/01/28 08:37:44;;;;;;;1.07;0.70;;;;;;;;;;5051703;28;20207;-62
2022/01/28 08:40:13;;;;;;;2.27;0.53;;;;;;;;;;5048458;28;20207;-61
2022/01/28 08:42:40;;;;;;;3.60;0.60;;;;;;;;;;5049737;28;20199;-62
2022/01/28 08:45:07;;;;;;;7.90;0.97;;;;;;;;;;5049053;28;20317;-62
2022/01/28 08:47:34;;;;;;;5.83;0.77;;;;;;;;;;5056703;28;20210;-62
2022/01/28 08:50:01;;;;;;;0.87;0.87;;;;;;;;;;5068280;28;20284;-63
2022/01/28 08:52:28;;;;;;;5.60;0.70;;;;;;;;;;5068279;28;20211;-62
2022/01/28 08:54:56;;;;;;;2.33;0.77;;;;;;;;;;5057692;28;20214;-63
2022/01/28 08:57:24;;;;;;;0.77;0.73;;;;;;;;;;5056410;28;20229;-62
2022/01/28 08:59:51;;;;;;;3.70;0.70;;;;;;;;;;5064363;28;20204;-64
2022/01/28 09:02:18;;;;;;;0.87;0.67;;;;;;;;;;5067395;28;20209;-63
2022/01/28 09:04:46;;;;;;;2.10;1.30;;;;;;;;;;5060136;28;20211;-63
2022/01/28 09:07:13;;;;;;;1.43;0.87;;;;;;;;;;5051767;28;20243;-62
2022/01/28 09:09:48;;;;;;;4.37;1.03;;;;;;;;;;5051326;28;20239;-63
2022/01/28 09:12:31;;;;;;;0.80;0.80;;;;;;;;;;5051489;28;20236;-62
2022/01/28 09:14:59;;;;;;;0.63;0.60;;;;;;;;;;5051266;28;20215;-62
2022/01/28 09:17:26;;;;;;;0.73;0.60;;;;;;;;;;5051329;28;20212;-62
2022/01/28 09:19:53;;;;;;;1.50;0.53;;;;;;;;;;5051318;28;20207;-62
2022/01/28 09:22:20;;;;;;;2.80;0.60;;;;;;;;;;5057895;28;20214;-62
2022/01/28 09:24:47;;;;;;;2.43;1.60;;;;;;;;;;5060137;28;20203;-63
2022/01/28 09:27:14;;;;;;;4.53;1.67;;;;;;;;;;5065268;28;20273;-59
2022/01/28 09:29:41;;;;;;;1.33;1.00;;;;;;;;;;5067936;28;20234;-59
2022/01/28 09:32:10;;;;;;;1.90;0.97;;;;;;;;;;5071433;28;20211;-62
2022/01/28 09:34:37;;;;;;;1.70;0.70;;;;;;;;;;5063140;28;20204;-60
2022/01/28 09:37:04;;;;;;;7.37;0.70;;;;;;;;;;5069507;28;20214;-60
2022/01/28 09:39:33;;;;;;;1.53;0.73;;;;;;;;;;5061855;28;20200;-60
2022/01/28 09:42:03;;;;;;;0.63;0.63;;;;;;;;;;5062719;28;20230;-60
2022/01/28 09:44:31;;;;;;;0.60;0.60;;;;;;;;;;5063588;28;20232;-62
2022/01/28 09:46:59;;;;;;;1.33;0.47;;;;;;;;;;5059364;28;20207;-65
2022/01/28 09:49:27;;;;;;;8.53;0.80;;;;;;;;;;5060120;28;20317;-62
2022/01/28 09:51:54;;;;;;;2.03;0.80;;;;;;;;;;5056398;28;20596;-61
2022/01/28 09:54:21;;;;;;;0.97;0.70;;;;;;;;;;5051146;28;20207;-60
2022/01/28 09:56:48;;;;;;;2.67;0.60;;;;;;;;;;5058661;28;20207;-61
2022/01/28 09:59:15;;;;;;;0.93;0.50;;;;;;;;;;5070772;28;20214;-62
2022/01/28 10:01:49;;;;;;;2.20;0.80;;;;;;;;;;5068066;28;20589;-62
2022/01/28 10:04:17;;;;;;;0.70;0.70;;;;;;;;;;5070180;28;20729;-61
2022/01/28 10:06:46;;;;;;;1.37;0.60;;;;;;;;;;5051596;28;20234;-63
2022/01/28 10:09:14;;;;;;;1.90;0.93;;;;;;;;;;5050095;28;20258;-62
2022/01/28 10:11:44;;;;;;;6.80;0.97;;;;;;;;;;5049886;28;20215;-62
2022/01/28 10:14:14;;;;;;;1.23;0.60;;;;;;;;;;5049893;28;20212;-63
2022/01/28 10:16:41;;;;;;;3.80;0.80;;;;;;;;;;5065799;28;20207;-62
2022/01/28 10:19:08;;;;;;;0.60;0.40;;;;;;;;;;5067544;28;20669;-60
2022/01/28 10:21:36;;;;;;;0.63;0.60;;;;;;;;;;5058116;28;20208;-61
2022/01/28 10:24:09;;;;;;;1.17;0.60;;;;;;;;;;5062518;28;20207;-62
2022/01/28 10:26:38;;;;;;;5.73;0.60;;;;;;;;;;5069849;28;20211;-61
2022/01/28 10:29:07;;;;;;;2.83;0.30;;;;;;;;;;5069673;28;20238;-61
2022/01/28 10:31:38;;;;;;;0.47;0.47;;;;;;;;;;5069262;28;20211;-64
2022/01/28 10:34:16;;;;;;;0.67;0.60;;;;;;;;;;5069895;28;20257;-62
2022/01/28 10:36:44;;;;;;;4.83;0.70;;;;;;;;;;5070235;28;20216;-63
2022/01/28 10:39:16;;;;;;;0.60;0.53;;;;;;;;;;5053083;28;20196;-61
2022/01/28 10:42:04;;;;;;;3.30;0.80;;;;;;;;;;5057171;28;20215;-65
2022/01/28 10:44:31;;;;;;;1.90;0.93;;;;;;;;;;5052922;28;20234;-61
2022/01/28 10:47:00;;;;;;;8.87;0.80;;;;;;;;;;5060111;28;20210;-62
2022/01/28 10:49:31;;;;;;;2.50;0.60;;;;;;;;;;5056683;28;20220;-62
2022/01/28 10:52:04;;;;;;;2.07;0.70;;;;;;;;;;5063599;28;20786;-60
2022/01/28 10:54:33;;;;;;;2.97;1.03;;;;;;;;;;5058298;28;20294;-62
2022/01/28 10:57:01;;;;;;;1.43;0.87;;;;;;;;;;5061908;28;20216;-65
2022/01/28 10:59:28;;;;;;;2.23;0.60;;;;;;;;;;5063289;28;20264;-62
2022/01/28 11:01:56;;;;;;;1.90;0.60;;;;;;;;;;5069739;28;20207;-62
2022/01/28 11:04:23;;;;;;;2.03;0.70;;;;;;;;;;5069884;28;20215;-62
2022/01/28 11:06:51;;;;;;;2.33;0.50;;;;;;;;;;5069589;28;20244;-62
2022/01/28 11:09:21;;;;;;;4.80;0.97;;;;;;;;;;5069467;28;20231;-62
2022/01/28 11:11:50;;;;;;;1.10;0.67;;;;;;;;;;5067663;28;20215;-62
2022/01/28 11:14:19;;;;;;;3.17;0.70;;;;;;;;;;5069485;28;20217;-63
2022/01/28 11:16:46;;;;;;;6.03;0.80;;;;;;;;;;5065901;28;20218;-63
2022/01/28 11:19:15;;;;;;;2.73;1.00;;;;;;;;;;5049580;28;20211;-62
2022/01/28 11:21:51;;;;;;;5.10;1.00;;;;;;;;;;5049361;28;20678;-62
2022/01/28 11:24:24;;;;;;;0.87;0.80;;;;;;;;;;5049516;28;20768;-64
2022/01/28 11:26:56;;;;;;;5.23;0.83;;;;;;;;;;5049350;28;20212;-62
2022/01/28 11:29:25;;;;;;;0.63;0.63;;;;;;;;;;5057885;28;21061;-60
2022/01/28 11:31:53;;;;;;;2.77;0.60;;;;;;;;;;5069253;28;20236;-61
2022/01/28 11:34:23;;;;;;;0.50;0.50;;;;;;;;;;5069151;28;20207;-61
2022/01/28 11:36:50;;;;;;;1.37;0.70;;;;;;;;;;5067218;28;20234;-62
2022/01/28 11:39:22;;;;;;;1.13;0.57;;;;;;;;;;5048732;28;20212;-61
2022/01/28 11:42:03;;;;;;;5.10;1.07;;;;;;;;;;5047303;28;20215;-61
2022/01/28 11:44:40;;;;;;;1.47;0.73;;;;;;;;;;5049092;28;20215;-62
2022/01/28 11:47:09;;;;;;;1.23;0.80;;;;;;;;;;5051632;28;20302;-61
2022/01/28 11:49:52;;;;;;;1.30;0.70;;;;;;;;;;5058599;28;20226;-62
2022/01/28 11:52:24;;;;;;;3.70;0.70;;;;;;;;;;5068952;28;20203;-61
2022/01/28 11:54:51;;;;;;;7.77;1.00;;;;;;;;;;5067302;28;20199;-60
2022/01/28 11:57:21;;;;;;;2.87;0.80;;;;;;;;;;5068705;28;20211;-61
2022/01/28 11:59:49;;;;;;;1.37;0.50;;;;;;;;;;5067308;28;20207;-61
2022/01/28 12:02:21;;;;;;;1.60;0.70;;;;;;;;;;5062346;28;20619;-61
2022/01/28 12:04:48;;;;;;;1.63;0.60;;;;;;;;;;5067071;28;20222;-62
2022/01/28 12:07:18;;;;;;;4.63;0.87;;;;;;;;;;5068151;28;20763;-62
2022/01/28 12:09:46;;;;;;;3.27;1.20;;;;;;;;;;5068014;28;20231;-62
2022/01/28 12:12:14;;;;;;;2.83;1.57;;;;;;;;;;5068202;28;20218;-62
2022/01/28 12:14:58;;;;;;;2.67;1.30;;;;;;;;;;5068360;28;20744;-62
2022/01/28 12:17:38;;;;;;;3.17;1.50;;;;;;;;;;5068368;28;20217;-62
2022/01/28 12:20:26;;;;;;;4.40;0.90;;;;;;;;;;5068164;28;20621;-62
2022/01/28 12:23:03;;;;;;;1.57;0.50;;;;;;;;;;5063279;28;20211;-62
2022/01/28 12:25:49;;;;;;;4.03;0.43;;;;;;;;;;5068149;28;20263;-61
2022/01/28 12:28:17;;;;;;;2.27;0.63;;;;;;;;;;5068410;28;20940;-62
2022/01/28 12:30:47;;;;;;;0.90;0.67;;;;;;;;;;5072173;28;20773;-62
2022/01/28 12:33:15;;;;;;;2.10;0.67;;;;;;;;;;5072345;28;20264;-62
2022/01/28 12:35:43;;;;;;;0.60;0.60;;;;;;;;;;5072068;28;20207;-62
2022/01/28 12:38:13;;;;;;;0.50;0.50;;;;;;;;;;5071976;28;20207;-62
2022/01/28 12:40:47;;;;;;;4.70;0.30;;;;;;;;;;5072004;28;20203;-62
2022/01/28 12:43:18;;;;;;;6.03;0.90;;;;;;;;;;5072055;28;20929;-62
2022/01/28 12:45:47;;;;;;;1.30;0.80;;;;;;;;;;5071883;28;20234;-62
2022/01/28 12:48:14;;;;;;;2.13;0.80;;;;;;;;;;5071901;28;20210;-62
2022/01/28 12:50:50;;;;;;;0.63;0.60;;;;;;;;;;5071740;28;20427;-62
2022/01/28 12:53:27;;;;;;;3.10;0.90;;;;;;;;;;5071677;28;20646;-62
2022/01/28 12:55:54;;;;;;;7.77;0.77;;;;;;;;;;5071718;28;20210;-62
2022/01/28 12:58:33;;;;;;;1.77;1.00;;;;;;;;;;5071745;28;20257;-62
2022/01/28 13:01:08;;;;;;;0.50;0.50;;;;;;;;;;5071585;28;20230;-62
2022/01/28 13:03:44;;;;;;;1.97;0.90;;;;;;;;;;5071593;28;20668;-62
2022/01/28 13:06:24;;;;;;;5.93;0.70;;;;;;;;;;5071580;28;20210;-62
2022/01/28 13:08:51;;;;;;;4.10;0.80;;;;;;;;;;5051589;28;20265;-62
2022/01/28 13:11:18;;;;;;;3.33;0.90;;;;;;;;;;5051270;28;20258;-62
2022/01/28 13:13:49;;;;;;;1.10;0.57;;;;;;;;;;5051429;28;20238;-62
2022/01/28 13:16:17;;;;;;;3.40;0.60;;;;;;;;;;5051382;28;20466;-62
2022/01/28 13:18:56;;;;;;;4.57;1.00;;;;;;;;;;5051398;28;20218;-62
2022/01/28 13:21:23;;;;;;;2.20;0.60;;;;;;;;;;5051278;28;20299;-62
2022/01/28 13:24:04;;;;;;;4.23;0.50;;;;;;;;;;5051235;28;20306;-62
2022/01/28 13:26:31;;;;;;;1.53;0.70;;;;;;;;;;5051074;28;20212;-62
2022/01/28 13:29:05;;;;;;;1.93;0.90;;;;;;;;;;5051101;28;20261;-63
2022/01/28 13:31:33;;;;;;;0.83;0.60;;;;;;;;;;5051179;28;20214;-61
2022/01/28 13:34:02;;;;;;;1.97;0.70;;;;;;;;;;5051200;28;20257;-61
2022/01/28 13:36:43;;;;;;;1.40;0.87;;;;;;;;;;5050996;28;20211;-62
2022/01/28 13:39:14;;;;;;;2.90;0.80;;;;;;;;;;5050515;28;20678;-63
2022/01/28 13:41:41;;;;;;;5.60;0.73;;;;;;;;;;5030956;28;20212;-63
2022/01/28 13:44:20;;;;;;;1.47;0.57;;;;;;;;;;5031092;28;20216;-63
2022/01/28 13:46:57;;;;;;;1.37;0.40;;;;;;;;;;5030931;28;20287;-63
2022/01/28 13:49:28;;;;;;;0.50;0.50;;;;;;;;;;5030899;28;20216;-63
2022/01/28 13:51:55;;;;;;;1.40;0.33;;;;;;;;;;5030884;28;20236;-63
2022/01/28 13:54:31;;;;;;;0.47;0.40;;;;;;;;;;5030832;28;20215;-63
2022/01/28 13:57:01;;;;;;;5.70;0.83;;;;;;;;;;5030633;28;20208;-63
2022/01/28 13:59:31;;;;;;;1.80;0.87;;;;;;;;;;5030657;28;20220;-63
2022/01/28 14:02:00;;;;;;;0.40;0.40;;;;;;;;;;5041072;28;20281;-63
2022/01/28 14:04:32;;;;;;;1.90;0.90;;;;;;;;;;5049485;28;20210;-63
2022/01/28 14:07:16;;;;;;;3.20;0.37;;;;;;;;;;5055373;28;20253;-63
2022/01/28 14:09:44;;;;;;;0.73;0.60;;;;;;;;;;5069239;28;20579;-63
2022/01/28 14:12:13;;;;;;;2.13;0.60;;;;;;;;;;5066890;28;20210;-61
2022/01/28 14:14:45;;;;;;;0.40;0.40;;;;;;;;;;5065209;28;20276;-61
2022/01/28 14:17:14;;;;;;;0.70;0.57;;;;;;;;;;5069957;28;20203;-63
2022/01/28 14:19:43;;;;;;;2.63;0.50;;;;;;;;;;5065275;28;20215;-60
2022/01/28 14:22:12;;;;;;;1.77;0.50;;;;;;;;;;5069219;28;20566;-62
2022/01/28 14:24:40;;;;;;;1.40;0.43;;;;;;;;;;5069747;28;20298;-63
2022/01/28 14:27:14;;;;;;;2.87;0.30;;;;;;;;;;5068213;28;20674;-60
2022/01/28 14:29:51;;;;;;;0.40;0.40;;;;;;;;;;5046028;28;20593;-60
2022/01/28 14:32:21;;;;;;;2.27;0.50;;;;;;;;;;5065494;28;20207;-60
2022/01/28 14:34:49;;;;;;;1.77;0.57;;;;;;;;;;5065455;28;20211;-60
2022/01/28 14:37:16;;;;;;;0.40;0.30;;;;;;;;;;5065925;28;20215;-61
2022/01/28 14:39:43;;;;;;;0.60;0.60;;;;;;;;;;5065016;28;20599;-61
2022/01/28 14:42:12;;;;;;;0.40;0.40;;;;;;;;;;5057222;28;20253;-61
2022/01/28 14:44:40;;;;;;;1.23;0.70;;;;;;;;;;5049027;28;20214;-59
2022/01/28 14:47:07;;;;;;;1.83;0.50;;;;;;;;;;5066299;28;20215;-59
2022/01/28 14:49:36;;;;;;;2.83;0.60;;;;;;;;;;5064837;28;20207;-59
2022/01/28 14:52:07;;;;;;;3.57;0.40;;;;;;;;;;5064875;28;20204;-59
2022/01/28 14:54:34;;;;;;;1.33;0.57;;;;;;;;;;5062476;28;20287;-60
2022/01/28 14:57:02;;;;;;;2.90;0.60;;;;;;;;;;5065627;28;20268;-60
2022/01/28 14:59:29;;;;;;;1.97;0.37;;;;;;;;;;5053580;28;20207;-61
2022/01/28 15:01:56;;;;;;;1.90;0.73;;;;;;;;;;5061684;28;20660;-61
2022/01/28 15:04:23;;;;;;;1.83;0.60;;;;;;;;;;5063697;28;20206;-63
2022/01/28 15:06:52;;;;;;;0.70;0.70;;;;;;;;;;5065199;28;20292;-63
2022/01/28 15:09:19;;;;;;;2.33;0.77;;;;;;;;;;5064557;28;20213;-62
2022/01/28 15:11:47;;;;;;;3.57;0.27;;;;;;;;;;5063499;28;20762;-63
2022/01/28 15:14:15;;;;;;;0.73;0.60;;;;;;;;;;5063567;28;20296;-62
2022/01/28 15:16:42;;;;;;;2.07;0.80;;;;;;;;;;5055021;28;20716;-62
2022/01/28 15:19:09;;;;;;;2.13;0.40;;;;;;;;;;5056490;28;20211;-62
2022/01/28 15:21:36;;;;;;;1.50;0.50;;;;;;;;;;5057431;28;20885;-62
2022/01/28 15:24:05;;;;;;;3.47;0.80;;;;;;;;;;5060575;28;20336;-62
2022/01/28 15:26:32;;;;;;;0.63;0.63;;;;;;;;;;5064592;28;20223;-65
2022/01/28 15:29:03;;;;;;;1.03;0.50;;;;;;;;;;5056165;28;20198;-61
2022/01/28 15:34:25;;;;;;;0.50;0.50;;;;;;;;;;5061197;28;20562;-61
2022/01/28 15:36:53;;;;;;;0.60;0.53;;;;;;;;;;5058168;28;20227;-62
2022/01/28 15:39:21;;;;;;;1.17;0.90;;;;;;;;;;5060291;28;20207;-62
2022/01/28 15:41:48;;;;;;;3.60;1.60;;;;;;;;;;5064974;28;20211;-62
2022/01/28 15:44:15;;;;;;;10.50;4.77;;;;;;;;;;5064954;28;20230;-62
2022/01/28 15:46:42;;;;;;;8.63;4.13;;;;;;;;;;5061123;28;20215;-61
2022/01/28 15:49:10;;;;;;;4.63;0.90;;;;;;;;;;5064360;28;20211;-64
2022/01/28 15:51:37;;;;;;;0.53;0.50;;;;;;;;;;5060037;28;21067;-61